Aviation Digital Data Service (ADDS)

Output produced by METARs form (1638 UTC 02 September 2014)
found at http://aviationweather.gov/adds/metars/
 
KPSM 021335Z 0214/0312 13006KT P6SM SCT080 
     FM030300 27005KT P6SM SCT020 
     TEMPO 0303/0304 5SM -TSRA BR BKN020CB 
     FM030500 VRB03KT 2SM BR BKN009